Time;durP1;ratioP1;P1;durP2;ratioP2;P2;SDS_P1;SDS_P2;PMS_P1;PMS_P2;Temp;Humidity;BMP_temperature;BMP_pressure;BME280_temperature;BME280_humidity;BME280_pressure;Samples;Min_cycle;Max_cycle;Signal;HPM_P1;HPM_P2
2023/08/01 00:01:58;;;;;;;12.73;3.03;;;14.40;99.90;;;;;;4990621;28;20030;-77
2023/08/01 00:04:23;;;;;;;16.98;3.53;;;14.40;99.90;;;;;;4991412;28;20489;-76
2023/08/01 00:06:49;;;;;;;11.57;2.92;;;14.40;99.90;;;;;;4991000;28;20500;-77
2023/08/01 00:09:15;;;;;;;12.40;3.03;;;14.40;99.90;;;;;;4990974;28;20030;-77
2023/08/01 00:11:40;;;;;;;16.45;2.75;;;14.40;99.90;;;;;;4991129;28;20037;-76
2023/08/01 00:14:06;;;;;;;14.77;3.08;;;14.40;99.90;;;;;;5005700;28;20031;-77
2023/08/01 00:16:32;;;;;;;16.00;3.30;;;14.30;99.90;;;;;;4990652;28;20038;-77
2023/08/01 00:18:58;;;;;;;19.33;3.50;;;14.20;99.90;;;;;;4990684;28;20038;-77
2023/08/01 00:21:24;;;;;;;12.15;2.75;;;14.20;99.90;;;;;;5005523;28;20027;-77
2023/08/01 00:23:50;;;;;;;11.52;3.17;;;14.30;99.90;;;;;;4991106;28;20046;-77
2023/08/01 00:26:15;;;;;;;10.27;3.22;;;14.30;99.90;;;;;;4990428;28;20065;-77
2023/08/01 00:28:41;;;;;;;18.98;3.40;;;14.40;99.90;;;;;;4991296;28;20032;-77
2023/08/01 00:31:10;;;;;;;13.38;3.20;;;14.40;99.90;;;;;;4990428;28;20440;-77
2023/08/01 00:33:36;;;;;;;12.75;2.72;;;14.40;99.90;;;;;;4990896;28;20109;-77
2023/08/01 00:36:02;;;;;;;21.48;3.55;;;14.40;99.90;;;;;;4990507;28;20427;-78
2023/08/01 00:38:28;;;;;;;10.43;3.15;;;14.40;99.90;;;;;;4990915;28;20163;-76
2023/08/01 00:40:54;;;;;;;15.95;2.90;;;14.40;99.90;;;;;;4989488;28;20037;-75
2023/08/01 00:43:20;;;;;;;12.50;3.05;;;14.40;99.90;;;;;;4988620;28;20403;-75
2023/08/01 00:45:46;;;;;;;14.90;3.15;;;14.40;99.90;;;;;;4990267;28;20350;-76
2023/08/01 00:48:12;;;;;;;16.70;2.90;;;14.40;99.90;;;;;;4989994;28;20041;-76
2023/08/01 00:50:39;;;;;;;18.02;3.22;;;14.40;99.90;;;;;;4990753;28;20089;-77
2023/08/01 00:53:05;;;;;;;12.38;2.65;;;14.40;99.90;;;;;;4989463;28;20519;-77
2023/08/01 00:55:34;;;;;;;15.07;3.35;;;14.40;99.90;;;;;;4990540;28;20058;-77
2023/08/01 00:58:00;;;;;;;13.93;3.47;;;14.40;99.90;;;;;;4990329;28;20380;-78
2023/08/01 01:00:26;;;;;;;10.98;2.65;;;14.40;99.90;;;;;;4994404;28;20026;-77
2023/08/01 01:02:51;;;;;;;13.13;3.22;;;14.40;99.90;;;;;;4994668;28;20042;-77
2023/08/01 01:05:18;;;;;;;17.38;3.63;;;14.30;99.90;;;;;;4994169;28;20044;-77
2023/08/01 01:07:44;;;;;;;16.30;3.10;;;14.30;99.90;;;;;;4994522;28;20039;-77
2023/08/01 01:10:10;;;;;;;16.10;3.10;;;14.30;99.90;;;;;;4994089;28;20161;-77
2023/08/01 01:12:35;;;;;;;10.75;2.78;;;14.30;99.90;;;;;;4994460;28;20203;-77
2023/08/01 01:15:02;;;;;;;11.00;2.83;;;14.30;99.90;;;;;;4993342;28;20026;-77
2023/08/01 01:17:27;;;;;;;16.52;3.00;;;14.30;99.90;;;;;;4994325;28;20065;-78
2023/08/01 01:19:54;;;;;;;13.73;3.70;;;14.30;99.90;;;;;;4994401;28;20428;-77
2023/08/01 01:22:20;;;;;;;13.68;3.05;;;14.30;99.90;;;;;;4993443;28;20442;-77
2023/08/01 01:24:47;;;;;;;11.80;3.17;;;14.30;99.90;;;;;;4994846;28;20537;-78
2023/08/01 01:27:15;;;;;;;9.02;2.78;;;14.30;99.90;;;;;;4994274;28;20073;-77
2023/08/01 01:29:43;;;;;;;12.23;2.95;;;14.20;99.90;;;;;;4994711;28;20109;-77
2023/08/01 01:32:09;;;;;;;12.82;3.05;;;14.30;99.90;;;;;;4993957;28;20026;-77
2023/08/01 01:34:35;;;;;;;13.77;3.05;;;14.30;99.90;;;;;;4995642;28;20129;-79
2023/08/01 01:37:00;;;;;;;14.25;2.80;;;14.20;99.90;;;;;;4993403;28;20136;-78
2023/08/01 01:39:26;;;;;;;11.00;3.15;;;14.20;99.90;;;;;;4995111;28;20027;-78
2023/08/01 01:41:52;;;;;;;16.02;3.22;;;14.20;99.90;;;;;;4993581;28;20452;-78
2023/08/01 01:44:17;;;;;;;15.25;2.80;;;14.20;99.90;;;;;;4994180;28;20085;-78
2023/08/01 01:46:43;;;;;;;11.93;3.03;;;14.10;99.90;;;;;;4994292;28;20046;-78
2023/08/01 01:49:09;;;;;;;11.85;2.95;;;14.10;99.90;;;;;;4993395;28;20467;-77
2023/08/01 01:51:34;;;;;;;11.82;2.75;;;14.20;99.90;;;;;;4994061;28;20026;-77
2023/08/01 01:54:00;;;;;;;9.50;2.85;;;14.20;99.90;;;;;;4992415;28;20030;-78
2023/08/01 01:56:26;;;;;;;11.23;2.95;;;14.10;99.90;;;;;;4994045;28;20037;-77
2023/08/01 01:58:51;;;;;;;12.32;3.25;;;14.10;99.90;;;;;;4993657;28;20049;-77
2023/08/01 02:01:17;;;;;;;11.20;3.15;;;14.00;99.90;;;;;;4993233;28;20030;-77
2023/08/01 02:03:43;;;;;;;10.93;2.65;;;14.00;99.90;;;;;;4993902;28;20033;-77
2023/08/01 02:06:08;;;;;;;6.38;2.35;;;14.00;99.90;;;;;;4993401;28;20110;-77
2023/08/01 02:08:34;;;;;;;9.13;2.60;;;13.90;99.90;;;;;;5008766;28;20408;-77
2023/08/01 02:11:00;;;;;;;10.18;3.38;;;13.90;99.90;;;;;;4993266;28;20030;-77
2023/08/01 02:13:27;;;;;;;10.75;2.95;;;13.80;99.90;;;;;;4993205;28;20030;-77
2023/08/01 02:15:53;;;;;;;10.55;2.78;;;13.80;99.90;;;;;;4992345;28;20026;-77
2023/08/01 02:18:19;;;;;;;8.65;2.50;;;13.70;99.90;;;;;;4992991;28;20027;-77
2023/08/01 02:20:45;;;;;;;10.18;3.15;;;13.70;99.90;;;;;;4993974;28;20089;-77
2023/08/01 02:23:11;;;;;;;11.98;2.83;;;13.70;99.90;;;;;;5007955;28;20050;-77
2023/08/01 02:25:40;;;;;;;10.15;2.65;;;13.60;99.90;;;;;;4992722;28;20037;-77
2023/08/01 02:28:06;;;;;;;14.10;3.38;;;13.60;99.90;;;;;;4992776;28;20505;-78
2023/08/01 02:30:32;;;;;;;12.93;3.22;;;13.60;99.90;;;;;;4993578;28;20027;-77
2023/08/01 02:32:58;;;;;;;19.02;2.97;;;13.60;99.90;;;;;;4994309;28;20033;-77
2023/08/01 02:35:24;;;;;;;15.45;3.00;;;13.60;99.90;;;;;;4993209;28;20743;-76
2023/08/01 02:37:49;;;;;;;9.38;2.38;;;13.50;99.90;;;;;;4992934;28;20054;-76
2023/08/01 02:40:15;;;;;;;13.45;3.20;;;13.50;99.90;;;;;;4993153;28;20055;-76
2023/08/01 02:42:41;;;;;;;10.18;2.50;;;13.50;99.90;;;;;;4993546;28;20022;-77
2023/08/01 02:45:07;;;;;;;8.63;2.63;;;13.50;99.90;;;;;;4992641;28;20030;-76
2023/08/01 02:47:32;;;;;;;8.88;2.92;;;13.50;99.90;;;;;;4993162;28;20054;-76
2023/08/01 02:49:58;;;;;;;10.15;2.40;;;13.50;99.90;;;;;;4993397;28;20049;-76
2023/08/01 02:52:24;;;;;;;12.55;3.15;;;13.50;99.90;;;;;;4992570;28;20269;-76
2023/08/01 02:54:50;;;;;;;10.35;3.75;;;13.50;99.90;;;;;;4993929;28;20479;-76
2023/08/01 02:57:15;;;;;;;10.40;2.47;;;13.50;99.90;;;;;;4992893;28;20039;-76
2023/08/01 02:59:41;;;;;;;11.00;3.08;;;13.50;99.90;;;;;;4992787;28;20436;-76
2023/08/01 03:02:07;;;;;;;10.43;2.75;;;13.50;99.90;;;;;;4991362;28;20030;-77
2023/08/01 03:04:32;;;;;;;11.75;2.60;;;13.50;99.90;;;;;;4993232;28;20030;-76
2023/08/01 03:06:58;;;;;;;12.68;3.38;;;13.50;99.90;;;;;;4993077;28;20100;-76
2023/08/01 03:09:24;;;;;;;11.35;3.17;;;13.50;99.90;;;;;;4992613;28;20525;-75
2023/08/01 03:11:50;;;;;;;16.92;3.55;;;13.50;99.90;;;;;;4993320;28;20140;-75
2023/08/01 03:14:16;;;;;;;14.27;2.83;;;13.50;99.90;;;;;;4992673;28;20049;-74
2023/08/01 03:16:42;;;;;;;15.20;3.40;;;13.40;99.90;;;;;;4992642;28;20046;-76
2023/08/01 03:19:08;;;;;;;12.68;2.80;;;13.40;99.90;;;;;;4991955;28;20034;-77
2023/08/01 03:21:35;;;;;;;10.48;3.15;;;13.40;99.90;;;;;;4991886;28;20030;-75
2023/08/01 03:24:02;;;;;;;13.48;2.88;;;13.40;99.90;;;;;;4992583;28;20115;-75
2023/08/01 03:26:28;;;;;;;13.32;2.83;;;13.40;99.90;;;;;;4991628;28;20049;-76
2023/08/01 03:28:55;;;;;;;10.55;2.72;;;13.40;99.90;;;;;;4992454;28;20102;-76
2023/08/01 03:31:24;;;;;;;15.77;3.00;;;13.40;99.90;;;;;;4992127;28;20039;-76
2023/08/01 03:33:50;;;;;;;14.95;2.75;;;13.40;99.90;;;;;;4992365;28;20123;-76
2023/08/01 03:36:16;;;;;;;10.05;3.22;;;13.40;99.90;;;;;;4991561;28;20030;-76
2023/08/01 03:38:42;;;;;;;10.68;2.63;;;13.40;99.90;;;;;;4992904;28;20030;-77
2023/08/01 03:41:07;;;;;;;10.82;2.92;;;13.40;99.90;;;;;;4991942;28;20113;-77
2023/08/01 03:43:33;;;;;;;15.30;3.03;;;13.40;99.90;;;;;;4992179;28;20040;-76
2023/08/01 03:45:59;;;;;;;13.07;3.20;;;13.30;99.90;;;;;;5006873;28;20030;-76
2023/08/01 03:48:25;;;;;;;11.05;3.30;;;13.40;99.90;;;;;;4991712;28;20126;-76
2023/08/01 03:50:50;;;;;;;12.80;2.92;;;13.30;99.90;;;;;;4991631;28;20030;-76
2023/08/01 03:53:16;;;;;;;10.18;2.80;;;13.40;99.90;;;;;;4991421;28;20033;-76
2023/08/01 03:55:44;;;;;;;8.52;2.58;;;13.40;99.90;;;;;;4991321;28;20110;-76
2023/08/01 03:58:10;;;;;;;18.13;3.33;;;13.40;99.90;;;;;;4991077;28;20476;-75
2023/08/01 04:00:35;;;;;;;11.18;2.75;;;13.40;99.90;;;;;;4991893;28;20037;-76
2023/08/01 04:03:05;;;;;;;12.93;3.13;;;13.40;99.90;;;;;;4991707;28;20164;-75
2023/08/01 04:05:31;;;;;;;10.35;2.80;;;13.40;99.90;;;;;;4991130;28;20045;-76
2023/08/01 04:07:57;;;;;;;13.15;2.75;;;13.40;99.90;;;;;;4991684;28;20432;-76
2023/08/01 04:10:23;;;;;;;11.73;2.88;;;13.50;99.90;;;;;;4991036;28;20065;-76
2023/08/01 04:12:49;;;;;;;12.57;2.47;;;13.40;99.90;;;;;;4991358;28;20530;-76
2023/08/01 04:15:14;;;;;;;10.13;2.67;;;13.50;99.90;;;;;;4991024;28;20105;-76
2023/08/01 04:17:40;;;;;;;15.00;3.08;;;13.50;99.90;;;;;;4991243;28;20080;-76
2023/08/01 04:20:06;;;;;;;8.07;2.30;;;13.40;99.90;;;;;;4991043;28;20113;-75
2023/08/01 04:22:32;;;;;;;10.20;3.08;;;13.40;99.90;;;;;;4991018;28;20033;-75
2023/08/01 04:24:58;;;;;;;12.38;2.63;;;13.50;99.90;;;;;;4991356;28;20026;-75
2023/08/01 04:27:23;;;;;;;12.93;2.72;;;13.50;99.90;;;;;;4990723;28;20485;-77
2023/08/01 04:29:49;;;;;;;8.93;2.45;;;13.50;99.90;;;;;;4991365;28;20041;-75
2023/08/01 04:32:15;;;;;;;10.55;2.83;;;13.50;99.90;;;;;;4990744;28;20022;-75
2023/08/01 04:34:44;;;;;;;7.45;2.22;;;13.50;99.90;;;;;;4991048;28;20495;-75
2023/08/01 04:37:11;;;;;;;12.60;2.63;;;13.50;99.90;;;;;;4990877;28;20464;-76
2023/08/01 04:39:36;;;;;;;9.05;2.33;;;13.60;99.90;;;;;;4991291;28;20113;-76
2023/08/01 04:42:02;;;;;;;12.07;2.33;;;13.50;99.90;;;;;;4990925;28;20061;-76
2023/08/01 04:44:29;;;;;;;8.95;2.45;;;13.50;99.90;;;;;;4990507;28;20030;-77
2023/08/01 04:46:55;;;;;;;8.95;2.28;;;13.60;99.90;;;;;;4990923;28;20337;-77
2023/08/01 04:49:21;;;;;;;9.93;2.58;;;13.60;99.90;;;;;;4990351;28;20030;-77
2023/08/01 04:51:50;;;;;;;11.15;2.50;;;13.60;99.90;;;;;;4991168;28;20084;-75
2023/08/01 04:54:15;;;;;;;12.77;2.45;;;13.60;99.90;;;;;;4990600;28;20026;-76
2023/08/01 04:56:41;;;;;;;13.95;3.10;;;13.60;99.90;;;;;;4991025;28;20037;-75
2023/08/01 04:59:07;;;;;;;10.65;2.88;;;13.60;99.90;;;;;;4991160;28;20460;-76
2023/08/01 05:01:33;;;;;;;8.32;2.45;;;13.60;99.90;;;;;;4990447;28;20201;-76
2023/08/01 05:03:59;;;;;;;8.95;2.85;;;13.60;99.90;;;;;;4990660;28;20442;-76
2023/08/01 05:06:24;;;;;;;11.52;2.78;;;13.50;99.90;;;;;;4990409;28;20050;-77
2023/08/01 05:08:50;;;;;;;14.18;2.47;;;13.60;99.90;;;;;;4990996;28;20023;-76
2023/08/01 05:11:16;;;;;;;9.05;2.50;;;13.60;99.90;;;;;;4990094;28;20344;-77
2023/08/01 05:13:41;;;;;;;10.52;2.58;;;13.60;99.90;;;;;;4990651;28;20030;-76
2023/08/01 05:16:07;;;;;;;9.07;2.40;;;13.60;99.90;;;;;;4990870;28;20069;-75
2023/08/01 05:18:33;;;;;;;9.77;2.90;;;13.60;99.90;;;;;;4989849;28;20027;-76
2023/08/01 05:20:58;;;;;;;16.95;2.60;;;13.70;99.90;;;;;;4991026;28;20487;-77
2023/08/01 05:23:24;;;;;;;8.45;2.53;;;13.70;99.90;;;;;;4990047;28;20051;-76
2023/08/01 05:25:50;;;;;;;12.20;2.78;;;13.70;99.90;;;;;;4990778;28;20097;-76
2023/08/01 05:28:15;;;;;;;9.07;2.65;;;13.70;99.90;;;;;;4990082;28;20045;-78
2023/08/01 05:30:41;;;;;;;10.32;2.53;;;13.70;99.90;;;;;;4990802;28;20080;-76
2023/08/01 05:33:07;;;;;;;9.00;2.42;;;13.70;99.90;;;;;;4991308;28;20179;-76
2023/08/01 05:35:32;;;;;;;11.63;2.97;;;13.70;99.90;;;;;;4990235;28;20945;-76
2023/08/01 05:37:59;;;;;;;10.20;2.50;;;13.70;99.90;;;;;;4990754;28;20055;-76
2023/08/01 05:40:25;;;;;;;10.90;2.92;;;13.70;99.90;;;;;;4990251;28;20503;-76
2023/08/01 05:42:51;;;;;;;9.25;2.78;;;13.70;99.90;;;;;;4990418;28;20103;-76
2023/08/01 05:45:17;;;;;;;11.70;2.88;;;13.80;99.90;;;;;;4992515;28;20023;-78
2023/08/01 05:47:42;;;;;;;7.78;2.30;;;13.90;99.90;;;;;;4994160;28;20121;-76
2023/08/01 05:50:09;;;;;;;7.05;2.20;;;14.00;99.90;;;;;;4993923;28;20034;-77
2023/08/01 05:52:34;;;;;;;10.30;3.00;;;14.10;99.90;;;;;;4993543;28;20039;-77
2023/08/01 05:55:00;;;;;;;12.93;2.67;;;14.20;99.90;;;;;;4994520;28;20037;-77
2023/08/01 05:57:26;;;;;;;9.02;2.53;;;14.30;99.90;;;;;;4993598;28;20109;-77
2023/08/01 05:59:52;;;;;;;8.90;2.70;;;14.40;99.90;;;;;;4994353;28;20476;-78
2023/08/01 06:02:17;;;;;;;9.63;2.65;;;14.50;99.90;;;;;;4993836;28;20101;-78
2023/08/01 06:04:43;;;;;;;13.73;2.88;;;14.60;99.90;;;;;;4994392;28;20062;-77
2023/08/01 06:07:09;;;;;;;7.22;1.95;;;14.70;99.90;;;;;;4993101;28;20038;-77
2023/08/01 06:09:34;;;;;;;13.23;2.80;;;14.80;99.90;;;;;;4993706;28;20042;-77
2023/08/01 06:12:00;;;;;;;12.32;3.15;;;14.90;99.90;;;;;;4993984;28;20026;-76
2023/08/01 06:14:26;;;;;;;8.98;2.00;;;15.10;99.90;;;;;;4993552;28;20062;-78
2023/08/01 06:16:51;;;;;;;10.93;3.20;;;15.10;99.90;;;;;;4994140;28;20105;-77
2023/08/01 06:19:17;;;;;;;11.77;2.17;;;15.20;99.90;;;;;;4993467;28;20125;-79
2023/08/01 06:21:43;;;;;;;9.07;2.60;;;15.20;99.90;;;;;;4993557;28;20453;-78
2023/08/01 06:24:10;;;;;;;5.47;1.80;;;15.30;99.90;;;;;;4993903;28;20543;-78
2023/08/01 06:26:35;;;;;;;10.43;2.03;;;15.40;99.90;;;;;;4992995;28;20070;-77
2023/08/01 06:29:01;;;;;;;7.53;2.22;;;15.40;99.90;;;;;;4973955;28;20077;-77
2023/08/01 06:31:27;;;;;;;10.18;2.33;;;15.50;99.90;;;;;;4973502;28;20022;-77
2023/08/01 06:33:52;;;;;;;8.65;3.03;;;15.60;99.90;;;;;;4972416;28;20442;-77
2023/08/01 06:36:18;;;;;;;9.65;2.30;;;15.70;99.90;;;;;;4973970;28;20080;-78
2023/08/01 06:38:44;;;;;;;12.57;2.25;;;15.80;99.90;;;;;;4974060;28;20026;-78
2023/08/01 06:41:10;;;;;;;8.40;2.67;;;15.90;99.90;;;;;;4973846;28;20109;-77
2023/08/01 06:43:38;;;;;;;8.52;2.22;;;16.00;99.90;;;;;;4973437;28;20042;-78
2023/08/01 06:46:04;;;;;;;12.77;2.30;;;16.00;99.90;;;;;;4973846;28;20034;-75
2023/08/01 06:48:31;;;;;;;12.10;1.92;;;15.80;99.90;;;;;;4973432;28;20122;-77
2023/08/01 06:50:57;;;;;;;8.05;2.20;;;16.00;99.90;;;;;;4974039;28;20031;-77
2023/08/01 06:53:23;;;;;;;6.35;2.40;;;16.00;99.90;;;;;;4973656;28;20085;-77
2023/08/01 06:55:48;;;;;;;5.47;2.08;;;16.00;99.90;;;;;;4973091;28;20061;-76
2023/08/01 06:58:14;;;;;;;9.73;2.78;;;15.90;99.90;;;;;;4972141;28;20089;-76
2023/08/01 07:00:40;;;;;;;10.50;2.97;;;15.90;99.90;;;;;;4972958;28;20026;-76
2023/08/01 07:03:05;;;;;;;11.00;2.40;;;15.90;99.90;;;;;;4973377;28;20057;-76
2023/08/01 07:05:31;;;;;;;7.00;2.33;;;15.90;99.90;;;;;;4972652;28;20117;-75
2023/08/01 07:07:58;;;;;;;6.25;2.55;;;15.80;99.90;;;;;;4973127;28;20046;-77
2023/08/01 07:10:23;;;;;;;9.32;2.38;;;15.80;99.90;;;;;;4971163;28;20453;-77
2023/08/01 07:12:49;;;;;;;8.40;2.35;;;15.90;99.90;;;;;;4972218;28;20101;-78
2023/08/01 07:15:15;;;;;;;6.70;2.78;;;15.90;99.90;;;;;;4972110;28;20035;-78
2023/08/01 07:17:40;;;;;;;8.43;2.90;;;16.10;99.90;;;;;;4971805;28;20222;-78
2023/08/01 07:20:06;;;;;;;6.50;2.65;;;16.20;99.90;;;;;;4972088;28;20134;-78
2023/08/01 07:22:32;;;;;;;8.88;3.90;;;16.20;99.90;;;;;;4971582;28;20019;-78
2023/08/01 07:24:58;;;;;;;10.07;2.95;;;16.40;99.90;;;;;;4972190;28;20026;-78
2023/08/01 07:27:23;;;;;;;11.05;2.90;;;16.60;99.90;;;;;;4971233;28;20543;-78
2023/08/01 07:29:49;;;;;;;8.95;2.95;;;16.60;99.90;;;;;;4971850;28;20034;-78
2023/08/01 07:32:15;;;;;;;8.65;2.28;;;16.70;99.90;;;;;;4971818;28;20133;-78
2023/08/01 07:34:41;;;;;;;7.03;2.35;;;16.80;99.90;;;;;;4971953;28;20127;-78
2023/08/01 07:37:06;;;;;;;8.32;2.38;;;16.90;99.90;;;;;;4970822;28;20126;-78
2023/08/01 07:39:34;;;;;;;5.72;1.65;;;16.90;99.90;;;;;;4971981;28;20039;-78
2023/08/01 07:42:00;;;;;;;5.47;1.83;;;17.00;99.90;;;;;;4971952;28;20027;-78
2023/08/01 07:44:26;;;;;;;6.90;2.08;;;17.00;99.90;;;;;;4970987;28;20110;-79
2023/08/01 07:46:51;;;;;;;8.30;2.45;;;16.90;99.90;;;;;;4971562;28;20038;-77
2023/08/01 07:49:18;;;;;;;5.22;2.22;;;16.80;99.90;;;;;;4971710;28;20410;-77
2023/08/01 07:51:43;;;;;;;7.13;2.00;;;17.00;99.90;;;;;;4971315;28;20114;-76
2023/08/01 07:54:10;;;;;;;7.90;2.30;;;17.10;99.90;;;;;;4971427;28;20057;-78
2023/08/01 07:56:36;;;;;;;7.78;2.33;;;17.30;99.90;;;;;;4970851;28;20431;-78
2023/08/01 07:59:02;;;;;;;5.05;1.92;;;17.30;99.90;;;;;;4971416;28;20134;-78
2023/08/01 08:01:27;;;;;;;3.72;1.80;;;17.30;99.90;;;;;;4969639;28;20035;-79
2023/08/01 08:03:53;;;;;;;6.95;1.60;;;17.30;99.90;;;;;;4972168;28;20055;-77
2023/08/01 08:06:21;;;;;;;6.75;2.30;;;17.30;99.90;;;;;;4972313;28;20030;-79
2023/08/01 08:08:46;;;;;;;4.32;1.65;;;17.30;99.90;;;;;;4970904;28;20031;-78
2023/08/01 08:11:12;;;;;;;4.82;1.80;;;17.40;99.90;;;;;;4972296;28;20042;-77
2023/08/01 08:13:38;;;;;;;7.10;2.22;;;17.50;99.90;;;;;;4971192;28;20046;-79
2023/08/01 08:16:05;;;;;;;7.35;2.50;;;17.40;99.90;;;;;;4976971;28;20404;-79
2023/08/01 08:18:31;;;;;;;8.02;2.05;;;17.40;99.90;;;;;;4990386;28;20092;-79
2023/08/01 08:20:57;;;;;;;6.82;2.13;;;17.40;99.90;;;;;;4990855;28;20030;-79
2023/08/01 08:23:22;;;;;;;5.45;1.75;;;17.50;99.90;;;;;;4990676;28;20030;-79
2023/08/01 08:25:49;;;;;;;4.35;1.70;;;17.50;99.90;;;;;;4991236;28;20030;-79
2023/08/01 08:28:16;;;;;;;6.40;1.45;;;17.50;99.90;;;;;;4990952;28;20424;-79
2023/08/01 08:30:42;;;;;;;4.15;1.75;;;17.40;99.90;;;;;;4991569;28;20296;-79
2023/08/01 08:33:07;;;;;;;5.82;1.75;;;17.50;99.90;;;;;;4992932;28;20464;-79
2023/08/01 08:35:36;;;;;;;6.15;1.90;;;17.60;99.90;;;;;;4990332;28;20031;-79
2023/08/01 08:38:03;;;;;;;7.35;2.15;;;17.70;99.90;;;;;;4991058;28;20057;-79
2023/08/01 08:40:33;;;;;;;5.60;1.80;;;17.70;99.90;;;;;;4990316;28;20030;-79
2023/08/01 08:43:05;;;;;;;3.97;1.80;;;17.70;99.90;;;;;;4990767;28;20034;-79
2023/08/01 08:45:35;;;;;;;5.03;1.60;;;17.60;99.90;;;;;;4990027;28;20469;-79
2023/08/01 08:48:08;;;;;;;4.22;1.60;;;17.60;99.90;;;;;;4990480;28;20042;-79
2023/08/01 08:50:35;;;;;;;2.85;1.38;;;17.70;99.90;;;;;;4989654;28;20154;-79
2023/08/01 08:53:02;;;;;;;6.78;1.67;;;17.80;99.90;;;;;;4990299;28;20023;-79
2023/08/01 08:55:29;;;;;;;3.95;1.30;;;17.80;99.90;;;;;;4989690;28;20113;-78
2023/08/01 08:57:56;;;;;;;5.93;1.77;;;18.00;99.90;;;;;;4990898;28;20138;-79
2023/08/01 09:00:22;;;;;;;2.60;1.25;;;18.00;99.90;;;;;;4990103;28;20077;-79
2023/08/01 09:02:48;;;;;;;4.45;1.50;;;17.90;99.90;;;;;;4989114;28;20030;-79
2023/08/01 09:05:14;;;;;;;2.80;1.30;;;18.00;99.90;;;;;;4990404;28;20037;-78
2023/08/01 09:07:48;;;;;;;5.43;1.40;;;18.00;99.90;;;;;;4990217;28;20034;-79
2023/08/01 09:10:13;;;;;;;4.65;1.98;;;18.00;99.90;;;;;;4991208;28;20460;-79
2023/08/01 09:12:39;;;;;;;5.97;1.30;;;18.20;99.90;;;;;;4990763;28;20022;-79
2023/08/01 09:15:06;;;;;;;5.50;1.40;;;18.30;99.90;;;;;;4991457;28;20121;-79
2023/08/01 09:17:32;;;;;;;5.95;1.30;;;18.50;99.90;;;;;;4990788;28;20093;-79
2023/08/01 09:20:07;;;;;;;2.72;1.00;;;18.70;99.90;;;;;;4992971;28;20439;-79
2023/08/01 09:22:46;;;;;;;2.97;0.98;;;18.90;99.90;;;;;;4993823;28;20419;-79
2023/08/01 09:25:13;;;;;;;6.28;1.50;;;19.00;99.90;;;;;;4994506;28;20034;-79
2023/08/01 09:27:39;;;;;;;2.33;1.10;;;19.00;99.90;;;;;;4993901;28;20042;-79
2023/08/01 09:30:15;;;;;;;2.60;0.90;;;19.20;99.90;;;;;;4994327;28;20105;-79
2023/08/01 09:32:51;;;;;;;4.60;1.33;;;19.20;99.90;;;;;;4994288;28;20038;-79
2023/08/01 09:35:17;;;;;;;5.30;1.30;;;19.40;99.90;;;;;;4994304;28;20028;-78
2023/08/01 09:37:43;;;;;;;4.45;1.17;;;19.50;99.90;;;;;;4994110;28;20050;-78
2023/08/01 09:40:10;;;;;;;5.82;1.23;;;19.60;99.90;;;;;;4995181;28;20075;-79
2023/08/01 09:42:39;;;;;;;2.65;0.82;;;19.50;99.90;;;;;;4993959;28;20031;-79
2023/08/01 09:45:16;;;;;;;5.00;2.53;;;19.60;99.90;;;;;;4994219;28;20046;-78
2023/08/01 09:47:42;;;;;;;5.22;1.73;;;19.60;99.90;;;;;;4992265;28;20066;-78
2023/08/01 09:50:19;;;;;;;4.45;1.45;;;19.70;99.90;;;;;;4994334;28;20057;-78
2023/08/01 09:52:52;;;;;;;2.80;1.00;;;19.70;99.90;;;;;;4993780;28;20833;-78
2023/08/01 09:55:34;;;;;;;1.88;0.93;;;19.70;99.90;;;;;;4994890;28;20386;-79
2023/08/01 09:58:00;;;;;;;2.07;0.80;;;19.70;99.90;;;;;;4994157;28;20026;-78
2023/08/01 10:00:28;;;;;;;2.47;1.13;;;19.70;99.90;;;;;;4994055;28;20318;-78
2023/08/01 10:02:57;;;;;;;2.47;0.90;;;19.80;99.90;;;;;;4995008;28;20027;-78
2023/08/01 10:05:23;;;;;;;3.00;1.02;;;19.90;99.90;;;;;;4993879;28;20022;-80
2023/08/01 10:07:53;;;;;;;2.28;0.70;;;19.70;99.90;;;;;;4992146;28;20042;-80
2023/08/01 10:10:20;;;;;;;2.67;0.80;;;19.70;99.90;;;;;;4994459;28;20383;-78
2023/08/01 10:12:49;;;;;;;3.72;0.88;;;19.90;99.90;;;;;;4993786;28;20068;-78
2023/08/01 10:15:16;;;;;;;3.42;1.10;;;19.90;99.90;;;;;;4993711;28;20034;-78
2023/08/01 10:17:41;;;;;;;2.85;0.55;;;19.80;99.90;;;;;;4993705;28;20362;-78
2023/08/01 10:20:08;;;;;;;2.95;1.05;;;19.70;99.90;;;;;;4994134;28;20053;-78
2023/08/01 10:22:35;;;;;;;1.58;0.80;;;19.40;99.90;;;;;;4993128;28;20134;-80
2023/08/01 10:25:01;;;;;;;4.38;0.90;;;19.40;99.90;;;;;;4993978;28;20033;-79
2023/08/01 10:27:26;;;;;;;2.58;0.77;;;19.40;99.90;;;;;;4993708;28;20038;-79
2023/08/01 10:30:00;;;;;;;2.63;1.15;;;19.50;99.90;;;;;;4992536;28;20033;-79
2023/08/01 10:32:34;;;;;;;3.03;0.77;;;19.50;99.90;;;;;;4993495;28;20026;-78
2023/08/01 10:35:00;;;;;;;2.83;0.75;;;19.60;99.90;;;;;;4993544;28;20026;-79
2023/08/01 10:37:38;;;;;;;2.10;1.10;;;19.60;99.90;;;;;;4993777;28;20060;-80
2023/08/01 10:40:04;;;;;;;2.60;1.10;;;19.60;99.90;;;;;;4993913;28;20345;-80
2023/08/01 10:42:41;;;;;;;3.22;0.98;;;19.50;99.90;;;;;;4993251;28;20105;-79
2023/08/01 10:45:19;;;;;;;2.13;0.82;;;19.40;99.90;;;;;;4995157;28;20082;-80
2023/08/01 10:47:44;;;;;;;2.45;1.00;;;19.40;99.90;;;;;;4993507;28;20030;-80
2023/08/01 10:50:17;;;;;;;1.73;0.60;;;19.50;99.90;;;;;;4993401;28;20475;-80
2023/08/01 10:52:43;;;;;;;5.30;0.80;;;19.50;99.90;;;;;;4992846;28;20058;-79
2023/08/01 10:55:10;;;;;;;2.05;0.80;;;19.50;99.90;;;;;;4993208;28;20105;-80
2023/08/01 10:57:48;;;;;;;2.20;0.73;;;19.60;99.90;;;;;;4992879;28;20120;-80
2023/08/01 11:00:17;;;;;;;2.13;0.68;;;19.70;99.90;;;;;;4993369;28;20116;-80
2023/08/01 11:02:51;;;;;;;1.73;0.60;;;19.80;99.90;;;;;;4992476;28;20041;-80
2023/08/01 11:05:18;;;;;;;2.70;0.65;;;19.80;99.90;;;;;;4993296;28;20118;-80
2023/08/01 11:08:03;;;;;;;3.40;0.75;;;19.80;99.90;;;;;;4992451;28;20034;-80
2023/08/01 11:10:31;;;;;;;2.38;0.77;;;19.90;99.90;;;;;;4993084;28;20092;-80
2023/08/01 11:12:58;;;;;;;3.95;0.52;;;19.90;99.90;;;;;;4993044;28;20031;-80
2023/08/01 11:15:24;;;;;;;0.93;0.50;;;19.90;99.90;;;;;;4992453;28;20489;-80
2023/08/01 11:17:53;;;;;;;2.00;0.57;;;19.90;99.90;;;;;;4992581;28;20204;-80
2023/08/01 11:20:21;;;;;;;2.00;0.52;;;19.90;99.90;;;;;;4992005;28;20494;-80
2023/08/01 11:23:04;;;;;;;0.70;0.45;;;20.00;99.90;;;;;;4991976;28;20129;-80
2023/08/01 11:25:43;;;;;;;2.13;0.60;;;20.00;99.90;;;;;;4992291;28;20440;-80
2023/08/01 11:28:13;;;;;;;1.50;0.60;;;20.10;99.90;;;;;;4992231;28;20491;-81
2023/08/01 11:30:39;;;;;;;0.80;0.50;;;20.10;99.90;;;;;;4991529;28;20117;-79
2023/08/01 11:33:20;;;;;;;2.30;0.50;;;20.20;99.90;;;;;;4992389;28;20030;-79
2023/08/01 11:35:50;;;;;;;2.20;0.60;;;20.10;99.90;;;;;;4991751;28;20054;-80
2023/08/01 11:38:16;;;;;;;4.95;0.63;;;20.20;99.90;;;;;;4991266;28;20062;-79
2023/08/01 11:40:42;;;;;;;3.65;0.70;;;20.10;99.90;;;;;;4991497;28;20034;-80
2023/08/01 11:43:08;;;;;;;3.45;0.70;;;20.00;99.90;;;;;;4991339;28;20026;-80
2023/08/01 11:45:34;;;;;;;2.88;0.80;;;20.00;99.90;;;;;;4990895;28;20081;-79
2023/08/01 11:47:59;;;;;;;4.32;0.80;;;20.10;99.90;;;;;;4991935;28;20030;-79
2023/08/01 11:50:26;;;;;;;3.13;0.50;;;20.10;99.90;;;;;;4992487;28;20110;-80
2023/08/01 11:52:52;;;;;;;1.52;0.60;;;20.30;99.90;;;;;;4991948;28;20618;-80
2023/08/01 11:55:37;;;;;;;2.40;0.55;;;20.60;99.90;;;;;;4993145;28;20366;-79
2023/08/01 11:58:04;;;;;;;4.78;0.77;;;20.80;99.90;;;;;;4992104;28;20109;-80
2023/08/01 12:00:30;;;;;;;1.88;0.45;;;20.80;99.90;;;;;;4992270;28;20113;-79
2023/08/01 12:03:07;;;;;;;3.53;0.50;;;21.00;99.90;;;;;;4991858;28;20112;-79
2023/08/01 12:05:33;;;;;;;1.88;0.50;;;21.10;99.90;;;;;;4992439;28;20034;-79
2023/08/01 12:08:12;;;;;;;2.20;0.60;;;21.20;99.90;;;;;;4991196;28;20031;-80
2023/08/01 12:10:42;;;;;;;6.30;0.80;;;21.30;99.90;;;;;;4990752;28;20023;-79
2023/08/01 12:13:25;;;;;;;2.55;0.40;;;21.20;99.90;;;;;;4991053;28;20062;-80
2023/08/01 12:15:52;;;;;;;1.60;0.55;;;21.30;99.90;;;;;;4990739;28;20022;-79
2023/08/01 12:18:22;;;;;;;1.13;0.50;;;21.40;99.90;;;;;;4991041;28;20030;-80
2023/08/01 12:20:48;;;;;;;0.85;0.40;;;21.40;99.90;;;;;;4990607;28;20038;-80
2023/08/01 12:23:14;;;;;;;1.02;0.50;;;21.50;99.90;;;;;;4989568;28;20060;-80
2023/08/01 12:25:39;;;;;;;2.65;0.40;;;21.50;99.90;;;;;;4990369;28;20029;-79
2023/08/01 12:28:05;;;;;;;1.90;0.40;;;21.50;99.90;;;;;;4990607;28;20415;-80
2023/08/01 12:30:31;;;;;;;1.70;0.50;;;21.50;99.90;;;;;;4991005;28;20490;-79
2023/08/01 12:32:57;;;;;;;2.88;0.70;;;21.30;99.90;;;;;;4990471;28;20034;-79
2023/08/01 12:35:22;;;;;;;1.05;0.68;;;21.40;99.90;;;;;;4990034;28;20109;-80
2023/08/01 12:37:48;;;;;;;2.95;0.63;;;21.20;99.90;;;;;;5004884;28;20085;-80
2023/08/01 12:40:14;;;;;;;1.30;0.68;;;21.00;99.90;;;;;;4990906;28;20367;-80
2023/08/01 12:42:39;;;;;;;1.05;0.40;;;21.00;99.90;;;;;;4990236;28;20034;-80